TimeCDT,TemperatureF,Dew PointF,Humidity,Sea Level PressureIn,VisibilityMPH,Wind Direction,Wind SpeedMPH,Gust SpeedMPH,PrecipitationIn,Events,Conditions,WindDirDegrees,DateUTC
12:15 AM,82.6,73.6,74,29.88,10.0,ESE,3.5,-,N/A,,Clear,120,2013-09-02 05:15:00
12:35 AM,83.3,72.9,71,29.88,10.0,ENE,3.5,-,N/A,,Clear,70,2013-09-02 05:35:00
12:55 AM,82.9,73.4,73,29.89,10.0,East,4.6,-,N/A,,Clear,80,2013-09-02 05:55:00
1:15 AM,82.4,72.9,73,29.89,10.0,East,4.6,-,N/A,,Clear,100,2013-09-02 06:15:00
1:35 AM,82.0,73.0,74,29.88,10.0,ESE,4.6,-,N/A,,Clear,110,2013-09-02 06:35:00
1:55 AM,82.0,73.2,75,29.88,10.0,ESE,3.5,-,N/A,,Clear,120,2013-09-02 06:55:00
2:15 AM,82.6,72.9,72,29.87,10.0,ESE,5.8,-,N/A,,Scattered Clouds,120,2013-09-02 07:15:00
2:35 AM,81.9,72.7,74,29.88,10.0,Calm,Calm,-,N/A,,Mostly Cloudy,0,2013-09-02 07:35:00
2:55 AM,82.2,73.2,74,29.90,10.0,NW,4.6,-,N/A,,Overcast,310,2013-09-02 07:55:00
3:15 AM,81.3,74.3,79,29.90,10.0,West,5.8,-,N/A,,Overcast,280,2013-09-02 08:15:00
3:35 AM,80.6,74.3,81,29.90,10.0,Calm,Calm,-,N/A,Thunderstorm,Scattered Clouds,0,2013-09-02 08:35:00
3:55 AM,80.1,74.8,84,29.89,10.0,Calm,Calm,-,N/A,,Scattered Clouds,0,2013-09-02 08:55:00
4:15 AM,80.1,74.3,82,29.89,10.0,Calm,Calm,-,N/A,Thunderstorm,Clear,0,2013-09-02 09:15:00
4:35 AM,79.9,75.0,85,29.90,10.0,NNE,3.5,-,N/A,,Clear,20,2013-09-02 09:35:00
4:55 AM,79.2,75.2,88,29.89,10.0,Calm,Calm,-,N/A,,Clear,0,2013-09-02 09:55:00
5:15 AM,79.0,74.8,87,29.89,10.0,NE,3.5,-,N/A,Thunderstorm,Mostly Cloudy,40,2013-09-02 10:15:00
5:35 AM,79.0,74.8,87,29.90,10.0,Calm,Calm,-,N/A,Thunderstorm,Overcast,0,2013-09-02 10:35:00
5:55 AM,79.7,74.3,83,29.91,10.0,East,4.6,-,N/A,,Overcast,100,2013-09-02 10:55:00
6:15 AM,79.9,74.7,84,29.92,10.0,Calm,Calm,-,N/A,,Scattered Clouds,0,2013-09-02 11:15:00
6:35 AM,80.1,74.5,83,29.92,10.0,Calm,Calm,-,N/A,,Scattered Clouds,0,2013-09-02 11:35:00
6:55 AM,79.7,74.7,84,29.92,10.0,Calm,Calm,-,N/A,,Clear,0,2013-09-02 11:55:00
7:15 AM,79.3,74.8,86,29.93,10.0,Calm,Calm,-,N/A,,Clear,0,2013-09-02 12:15:00
7:35 AM,80.1,74.5,83,29.95,10.0,Calm,Calm,-,N/A,,Scattered Clouds,0,2013-09-02 12:35:00
7:55 AM,80.8,74.3,81,29.95,10.0,Calm,Calm,-,N/A,,Mostly Cloudy,0,2013-09-02 12:55:00
8:15 AM,81.5,74.3,79,29.96,10.0,Calm,Calm,-,N/A,,Mostly Cloudy,0,2013-09-02 13:15:00
8:35 AM,81.9,74.7,79,29.96,10.0,Calm,Calm,-,N/A,,Scattered Clouds,0,2013-09-02 13:35:00
8:55 AM,83.1,74.5,75,29.96,10.0,South,3.5,-,N/A,,Scattered Clouds,190,2013-09-02 13:55:00
9:15 AM,84.7,75.0,72,29.97,10.0,SSW,4.6,-,N/A,Thunderstorm,Scattered Clouds,210,2013-09-02 14:15:00
9:35 AM,85.5,75.4,72,29.97,10.0,SW,5.8,-,N/A,,Clear,230,2013-09-02 14:35:00
9:55 AM,86.5,75.4,69,29.98,10.0,SSW,8.1,-,N/A,Thunderstorm,Scattered Clouds,210,2013-09-02 14:55:00
10:15 AM,86.2,75.7,71,29.98,10.0,WSW,8.1,-,N/A,,Scattered Clouds,240,2013-09-02 15:15:00
10:35 AM,86.9,75.2,68,29.98,10.0,WSW,9.2,-,N/A,,Mostly Cloudy,240,2013-09-02 15:35:00
10:55 AM,87.8,75.6,67,29.98,10.0,West,10.4,-,N/A,,Mostly Cloudy,260,2013-09-02 15:55:00
11:15 AM,89.1,76.1,65,29.99,10.0,WSW,9.2,-,N/A,,Mostly Cloudy,250,2013-09-02 16:15:00
11:35 AM,90.7,75.6,61,29.98,10.0,WSW,6.9,-,N/A,,Scattered Clouds,240,2013-09-02 16:35:00
11:55 AM,89.6,75.2,62,29.98,10.0,SW,6.9,-,N/A,,Scattered Clouds,220,2013-09-02 16:55:00
12:15 PM,89.8,75.4,62,29.98,10.0,WSW,5.8,-,N/A,,Mostly Cloudy,240,2013-09-02 17:15:00
12:35 PM,90.1,75.4,62,29.98,10.0,WSW,5.8,-,N/A,,Mostly Cloudy,240,2013-09-02 17:35:00
12:55 PM,93.7,74.7,54,29.97,10.0,NW,5.8,-,N/A,,Scattered Clouds,310,2013-09-02 17:55:00
1:15 PM,93.4,74.8,55,29.96,10.0,Calm,Calm,-,N/A,,Clear,0,2013-09-02 18:15:00
1:35 PM,93.6,75.0,55,29.96,10.0,West,10.4,-,N/A,,Clear,260,2013-09-02 18:35:00
1:55 PM,95.7,75.7,52,29.95,10.0,WSW,6.9,-,N/A,,Scattered Clouds,240,2013-09-02 18:55:00
2:15 PM,95.7,73.8,49,29.94,10.0,WNW,6.9,-,N/A,,Scattered Clouds,300,2013-09-02 19:15:00
2:35 PM,97.3,73.8,47,29.93,10.0,WNW,9.2,-,N/A,,Scattered Clouds,300,2013-09-02 19:35:00
2:55 PM,98.1,74.3,46,29.91,10.0,WSW,8.1,-,N/A,,Scattered Clouds,240,2013-09-02 19:55:00
3:15 PM,97.2,73.8,47,29.90,10.0,West,4.6,-,N/A,,Scattered Clouds,270,2013-09-02 20:15:00
3:35 PM,98.8,73.4,44,29.89,10.0,Calm,Calm,-,N/A,,Scattered Clouds,0,2013-09-02 20:35:00
3:55 PM,98.2,73.9,46,29.88,10.0,West,5.8,-,N/A,,Mostly Cloudy,260,2013-09-02 20:55:00
4:15 PM,100.0,73.0,42,29.88,10.0,NNW,6.9,-,N/A,,Scattered Clouds,330,2013-09-02 21:15:00
4:35 PM,97.7,71.6,43,29.87,10.0,WNW,4.6,-,N/A,,Clear,300,2013-09-02 21:35:00
4:55 PM,99.3,72.1,41,29.86,10.0,NNW,6.9,-,N/A,,Clear,330,2013-09-02 21:55:00
5:15 PM,97.9,71.6,43,29.85,10.0,WNW,5.8,-,N/A,,Clear,300,2013-09-02 22:15:00
5:35 PM,100.6,71.6,39,29.85,10.0,NW,5.8,-,N/A,,Scattered Clouds,310,2013-09-02 22:35:00
5:55 PM,100.4,70.2,37,29.86,10.0,NNE,9.2,-,N/A,,Mostly Cloudy,20,2013-09-02 22:55:00
6:15 PM,98.4,70.7,41,29.86,10.0,North,10.4,-,N/A,,Overcast,360,2013-09-02 23:15:00
6:35 PM,97.9,72.3,44,29.86,10.0,NE,10.4,-,N/A,,Overcast,50,2013-09-02 23:35:00
6:55 PM,96.3,74.5,49,29.86,10.0,East,5.8,-,N/A,,Overcast,100,2013-09-02 23:55:00
7:15 PM,94.1,75.0,54,29.87,10.0,East,4.6,-,N/A,,Overcast,90,2013-09-03 00:15:00
7:35 PM,93.0,75.0,56,29.87,10.0,Calm,Calm,-,N/A,,Mostly Cloudy,0,2013-09-03 00:35:00
7:55 PM,91.8,75.4,59,29.87,10.0,Calm,Calm,-,N/A,,Mostly Cloudy,0,2013-09-03 00:55:00
8:15 PM,91.4,71.4,52,29.88,10.0,NNE,6.9,-,N/A,,Scattered Clouds,30,2013-09-03 01:15:00
8:35 PM,90.7,69.6,50,29.89,10.0,NNE,6.9,-,N/A,,Clear,30,2013-09-03 01:35:00
8:55 PM,89.6,69.1,51,29.90,10.0,NNE,6.9,-,N/A,,Clear,20,2013-09-03 01:55:00
9:15 PM,88.9,67.1,48,29.91,10.0,North,4.6,-,N/A,,Clear,10,2013-09-03 02:15:00
9:35 PM,88.0,65.8,48,29.91,10.0,NNE,4.6,-,N/A,,Clear,20,2013-09-03 02:35:00
9:55 PM,86.9,65.3,48,29.93,10.0,North,4.6,-,N/A,,Clear,10,2013-09-03 02:55:00
10:15 PM,86.0,65.3,50,29.93,10.0,North,3.5,-,N/A,,Clear,360,2013-09-03 03:15:00
10:35 PM,85.1,64.9,51,29.93,10.0,North,3.5,-,N/A,,Clear,360,2013-09-03 03:35:00
10:55 PM,84.6,64.8,51,29.94,10.0,NNE,3.5,-,N/A,,Clear,20,2013-09-03 03:55:00
11:15 PM,83.8,64.8,52,29.94,10.0,North,3.5,-,N/A,,Clear,10,2013-09-03 04:15:00
11:35 PM,83.3,65.1,54,29.94,10.0,North,3.5,-,N/A,,Clear,350,2013-09-03 04:35:00
11:55 PM,82.6,64.6,54,29.94,10.0,North,4.6,-,N/A,,Clear,350,2013-09-03 04:55:00